Time;durP1;ratioP1;P1;durP2;ratioP2;P2;SDS_P1;SDS_P2;PMS_P1;PMS_P2;Temp;Humidity;BMP_temperature;BMP_pressure;BME280_temperature;BME280_humidity;BME280_pressure;Samples;Min_cycle;Max_cycle;Signal;HPM_P1;HPM_P2
2021/08/06 00:00:55;;;;;;;1.90;0.40;;;;;;;14.98;93.33;96789.48;125500;1100;26261;-90
2021/08/06 00:03:27;;;;;;;0.35;0.25;;;;;;;14.95;92.93;96788.16;125508;1100;23282;-91
2021/08/06 00:05:54;;;;;;;0.40;0.30;;;;;;;14.91;93.37;96792.66;125595;1100;26261;-90
2021/08/06 00:08:23;;;;;;;;;;;;;;;14.86;93.46;96779.09;125545;1100;22975;-89
2021/08/06 00:10:50;;;;;;;0.75;0.50;;;;;;;14.84;93.70;96789.55;125426;1100;21601;-89
2021/08/06 00:13:21;;;;;;;0.73;0.50;;;;;;;14.83;93.83;96779.70;125251;1100;25982;-90
2021/08/06 00:15:51;;;;;;;;;;;;;;;14.85;93.81;96779.39;125483;1100;24468;-88
2021/08/06 00:18:20;;;;;;;0.40;0.40;;;;;;;14.86;93.59;96786.51;125259;1100;25677;-88
2021/08/06 00:20:47;;;;;;;0.50;0.28;;;;;;;14.86;93.54;96792.79;125286;1100;22897;-90
2021/08/06 00:23:15;;;;;;;0.40;0.40;;;;;;;14.86;93.65;96791.98;125243;1100;27170;-90
2021/08/06 00:25:44;;;;;;;0.55;0.23;;;;;;;14.83;93.71;96789.87;125288;1100;27334;-90
2021/08/06 00:28:13;;;;;;;0.70;0.50;;;;;;;14.81;93.65;96787.44;125377;1100;25874;-90
2021/08/06 00:30:42;;;;;;;0.53;0.30;;;;;;;14.80;93.65;96789.38;125296;1098;24600;-90
2021/08/06 00:33:13;;;;;;;0.30;0.30;;;;;;;14.80;93.68;96781.16;125356;1100;23001;-90
2021/08/06 00:35:42;;;;;;;0.70;0.25;;;;;;;14.80;93.62;96794.03;125271;1100;26255;-90
2021/08/06 00:38:14;;;;;;;0.20;0.20;;;;;;;14.80;93.56;96794.86;125281;1100;24449;-90
2021/08/06 00:40:44;;;;;;;0.30;0.30;;;;;;;14.81;93.66;96790.98;125292;1100;22969;-90
2021/08/06 00:43:15;;;;;;;0.20;0.20;;;;;;;14.82;93.41;96791.81;125229;1099;22832;-90
2021/08/06 00:45:46;;;;;;;1.00;0.30;;;;;;;14.80;93.17;96794.86;125253;1099;27258;-91
2021/08/06 00:48:21;;;;;;;0.77;0.33;;;;;;;14.77;93.34;96791.94;125430;1100;22825;-90
2021/08/06 00:50:55;;;;;;;0.63;0.20;;;;;;;14.77;93.00;96789.20;125323;1100;23040;-91
2021/08/06 00:53:24;;;;;;;0.40;0.30;;;;;;;14.74;93.24;96796.09;125191;1100;22969;-91
2021/08/06 00:55:54;;;;;;;0.50;0.20;;;;;;;14.70;93.40;96789.63;125271;1100;22825;-91
2021/08/06 00:58:23;;;;;;;0.40;0.40;;;;;;;14.68;93.32;96802.84;125344;1100;23037;-91
2021/08/06 01:00:52;;;;;;;0.20;0.20;;;;;;;14.66;93.26;96802.34;125321;1100;25890;-89
2021/08/06 01:03:53;;;;;;;0.45;0.30;;;;;;;14.63;93.20;96805.70;125353;1100;24642;-91
2021/08/06 01:06:49;;;;;;;1.25;0.30;;;;;;;14.60;93.31;96809.86;125290;1100;22839;-89
2021/08/06 01:09:44;;;;;;;0.85;0.40;;;;;;;14.61;93.41;96805.21;125279;1100;22845;-89
2021/08/06 01:12:51;;;;;;;0.93;0.10;;;;;;;14.58;93.55;96801.15;125233;1100;23012;-89
2021/08/06 01:15:22;;;;;;;0.40;0.30;;;;;;;14.60;93.20;96803.58;125168;1100;27208;-88
2021/08/06 01:17:52;;;;;;;0.55;0.55;;;;;;;14.58;93.42;96797.61;125220;1100;26082;-88
2021/08/06 01:20:34;;;;;;;0.20;0.20;;;;;;;14.56;93.54;96792.41;125260;1100;22821;-88
2021/08/06 01:23:24;;;;;;;1.68;0.30;;;;;;;14.54;93.86;96805.61;125269;1100;23350;-90
2021/08/06 01:26:03;;;;;;;1.25;0.35;;;;;;;14.51;93.95;96811.70;125231;1100;22808;-89
2021/08/06 01:28:48;;;;;;;0.60;0.60;;;;;;;14.51;94.04;96808.17;125159;1103;26277;-88
2021/08/06 01:31:24;;;;;;;1.25;0.30;;;;;;;14.49;94.06;96800.26;125238;1100;22802;-89
2021/08/06 01:33:58;;;;;;;0.55;0.30;;;;;;;14.50;93.79;96815.58;125241;1100;24492;-91
2021/08/06 01:36:28;;;;;;;1.05;0.40;;;;;;;14.51;93.75;96808.17;125241;1098;22902;-88
2021/08/06 01:38:58;;;;;;;0.63;0.33;;;;;;;14.50;93.95;96807.36;125213;1100;22802;-90
2021/08/06 01:41:50;;;;;;;0.55;0.30;;;;;;;14.53;94.10;96819.62;125139;1100;22828;-90
2021/08/06 01:44:30;;;;;;;1.97;0.40;;;;;;;14.55;93.81;96817.38;125355;1100;27462;-87
2021/08/06 01:47:22;;;;;;;1.15;0.30;;;;;;;14.56;93.88;96819.00;125233;1098;22845;-88
2021/08/06 01:50:07;;;;;;;0.63;0.40;;;;;;;14.54;93.71;96815.77;125198;1100;22847;-88
2021/08/06 01:53:01;;;;;;;0.70;0.40;;;;;;;14.56;93.73;96817.06;125198;1100;22684;-91
2021/08/06 01:55:42;;;;;;;0.30;0.30;;;;;;;14.57;93.86;96824.17;125249;1100;22927;-88
2021/08/06 01:58:13;;;;;;;1.10;0.40;;;;;;;14.58;93.71;96825.00;125238;1100;22923;-89
2021/08/06 02:00:45;;;;;;;0.87;0.80;;;;;;;14.59;93.90;96821.16;125160;1100;22957;-88
2021/08/06 02:03:16;;;;;;;1.25;0.50;;;;;;;14.61;93.60;96830.67;125235;1100;27335;-88
2021/08/06 02:05:51;;;;;;;0.30;0.30;;;;;;;14.60;93.55;96831.78;125209;1100;22889;-88
2021/08/06 02:08:20;;;;;;;0.80;0.70;;;;;;;14.61;93.65;96821.65;125214;1100;22820;-88
2021/08/06 02:10:55;;;;;;;0.55;0.55;;;;;;;14.63;93.78;96832.30;125492;1099;27230;-91
2021/08/06 02:13:24;;;;;;;0.70;0.40;;;;;;;14.63;93.50;96827.63;125287;1100;22913;-92
2021/08/06 02:15:52;;;;;;;0.40;0.40;;;;;;;14.64;93.35;96822.94;125223;1100;22863;-91
2021/08/06 02:18:25;;;;;;;0.30;0.30;;;;;;;14.63;93.41;96824.08;125370;1100;26261;-90
2021/08/06 02:21:09;;;;;;;2.30;0.35;;;;;;;14.63;93.21;96835.05;125225;1099;22803;-89
2021/08/06 02:23:38;;;;;;;1.87;0.50;;;;;;;14.60;93.18;96820.81;125261;1100;22970;-89
2021/08/06 02:26:08;;;;;;;2.15;0.40;;;;;;;14.59;93.26;96826.64;125277;1098;26305;-91
2021/08/06 02:28:35;;;;;;;0.80;0.50;;;;;;;14.59;93.13;96818.42;125257;1103;22954;-91
2021/08/06 02:31:03;;;;;;;0.37;0.37;;;;;;;14.59;93.15;96824.70;125224;1100;22968;-92
2021/08/06 02:33:34;;;;;;;1.60;0.30;;;;;;;14.58;93.16;96825.80;125320;1100;22809;-91
2021/08/06 02:36:04;;;;;;;2.45;0.30;;;;;;;14.56;93.05;96822.54;125211;1100;22835;-91
2021/08/06 02:38:34;;;;;;;0.30;0.30;;;;;;;14.53;93.27;96825.89;125287;1100;22880;-91
2021/08/06 02:41:01;;;;;;;1.47;0.40;;;;;;;14.52;93.22;96832.51;125260;1100;22804;-91
2021/08/06 02:43:29;;;;;;;0.20;0.20;;;;;;;14.51;93.28;96830.88;125215;1100;22912;-90
2021/08/06 02:45:57;;;;;;;0.53;0.30;;;;;;;14.49;92.73;96827.64;125224;1100;22829;-91
2021/08/06 02:48:24;;;;;;;1.60;0.50;;;;;;;14.50;93.16;96829.28;125146;1100;22939;-90
2021/08/06 02:50:54;;;;;;;0.20;0.20;;;;;;;14.50;93.31;96828.45;125208;1100;22876;-90
2021/08/06 02:53:24;;;;;;;2.15;0.50;;;;;;;14.50;93.23;96836.66;125231;1098;22831;-91
2021/08/06 02:55:51;;;;;;;0.30;0.30;;;;;;;14.50;93.05;96837.50;125203;1100;22795;-90
2021/08/06 02:58:20;;;;;;;1.97;0.50;;;;;;;14.50;92.89;96845.72;125236;1100;22823;-90
2021/08/06 03:00:48;;;;;;;;;;;;;;;14.49;93.02;96841.34;125265;1100;22823;-91
2021/08/06 03:03:18;;;;;;;0.30;0.30;;;;;;;14.46;93.10;96839.22;125295;1100;22071;-87
2021/08/06 03:05:45;;;;;;;0.60;0.50;;;;;;;14.46;93.03;96847.43;125166;1100;22812;-90
2021/08/06 03:08:14;;;;;;;0.40;0.40;;;;;;;14.43;92.99;96843.39;125259;1102;22992;-91
2021/08/06 03:10:42;;;;;;;0.50;0.50;;;;;;;14.41;92.97;96848.38;125173;1100;22831;-89
2021/08/06 03:13:12;;;;;;;0.40;0.40;;;;;;;14.38;93.27;96848.19;125191;1100;22829;-90
2021/08/06 03:15:46;;;;;;;2.90;0.60;;;;;;;14.38;93.27;96850.92;125229;1100;22921;-90
2021/08/06 03:18:14;;;;;;;0.48;0.48;;;;;;;14.37;93.02;96860.25;125187;1100;24599;-90
2021/08/06 03:20:44;;;;;;;0.50;0.50;;;;;;;14.36;92.95;96864.09;125175;1100;24714;-91
2021/08/06 03:23:11;;;;;;;0.40;0.40;;;;;;;14.36;93.03;96864.09;125177;1098;22823;-90
2021/08/06 03:25:40;;;;;;;0.53;0.53;;;;;;;14.35;92.96;96859.75;125222;1100;22802;-91
2021/08/06 03:28:16;;;;;;;0.40;0.40;;;;;;;14.32;92.80;96860.36;125335;1100;22926;-89
2021/08/06 03:30:43;;;;;;;1.40;0.50;;;;;;;14.26;92.73;96859.67;125326;1099;22815;-91
2021/08/06 03:33:11;;;;;;;0.40;0.40;;;;;;;14.24;92.79;96868.20;125223;1100;26343;-91
2021/08/06 03:35:39;;;;;;;0.47;0.47;;;;;;;14.24;92.76;96872.87;125211;1100;22807;-90
2021/08/06 03:38:24;;;;;;;0.50;0.50;;;;;;;14.22;92.67;96872.38;125244;1100;22823;-90
2021/08/06 03:40:56;;;;;;;0.40;0.40;;;;;;;14.21;92.41;96873.48;125261;1100;22909;-91
2021/08/06 03:43:26;;;;;;;0.50;0.50;;;;;;;14.19;92.47;96875.72;125213;1100;23060;-91
2021/08/06 03:45:53;;;;;;;0.35;0.35;;;;;;;14.16;92.43;96871.65;125213;1100;22809;-91
2021/08/06 03:48:21;;;;;;;0.80;0.60;;;;;;;14.13;92.55;96876.92;125217;1100;27398;-91
2021/08/06 03:50:49;;;;;;;0.50;0.50;;;;;;;14.10;92.66;96878.37;125154;1100;26268;-91
2021/08/06 03:53:16;;;;;;;0.45;0.45;;;;;;;14.10;92.60;96883.84;125320;1100;22839;-90
2021/08/06 03:55:44;;;;;;;1.05;0.40;;;;;;;14.12;92.59;96889.02;125181;1100;22823;-89
2021/08/06 03:58:12;;;;;;;0.40;0.40;;;;;;;14.13;92.49;96885.97;125417;1098;22826;-90
2021/08/06 04:00:39;;;;;;;0.70;0.70;;;;;;;14.12;92.41;96889.81;125380;1100;22983;-91
2021/08/06 04:03:09;;;;;;;0.40;0.40;;;;;;;14.10;92.21;96892.05;125448;1100;22983;-90
2021/08/06 04:05:36;;;;;;;0.45;0.45;;;;;;;14.10;92.21;96893.98;125463;1100;22853;-90
2021/08/06 04:08:08;;;;;;;0.50;0.50;;;;;;;14.10;92.33;96902.20;125455;1100;22863;-91
2021/08/06 04:10:38;;;;;;;0.60;0.60;;;;;;;14.07;92.32;96903.61;125496;1099;22887;-89
2021/08/06 04:13:06;;;;;;;0.70;0.40;;;;;;;14.07;92.30;96900.88;125447;1099;22777;-88
2021/08/06 04:15:33;;;;;;;0.50;0.40;;;;;;;14.08;92.19;96912.62;125416;1100;22810;-88
2021/08/06 04:18:00;;;;;;;0.70;0.50;;;;;;;14.08;92.36;96907.98;125538;1100;23527;-88
2021/08/06 04:20:28;;;;;;;0.50;0.50;;;;;;;14.11;92.40;96903.80;125690;1100;22812;-89
2021/08/06 04:22:57;;;;;;;1.10;0.70;;;;;;;14.12;92.25;96902.70;125449;1100;22817;-88
2021/08/06 04:25:25;;;;;;;1.35;0.60;;;;;;;14.12;91.98;96911.72;125527;1098;22855;-88
2021/08/06 04:27:52;;;;;;;1.25;0.50;;;;;;;14.12;92.03;96906.23;125459;1100;22765;-89
2021/08/06 04:30:19;;;;;;;1.40;0.40;;;;;;;14.12;91.83;96910.91;125351;1100;24190;-90
2021/08/06 04:32:46;;;;;;;0.55;0.45;;;;;;;14.13;92.08;96918.83;125155;1100;22809;-91
2021/08/06 04:35:13;;;;;;;0.47;0.47;;;;;;;14.13;92.23;96916.09;125209;1100;22831;-90
2021/08/06 04:37:51;;;;;;;0.60;0.60;;;;;;;14.13;92.04;96934.42;125203;1099;26271;-90
2021/08/06 04:40:19;;;;;;;0.47;0.47;;;;;;;14.09;91.60;96938.89;125222;1100;26316;-91
2021/08/06 04:42:47;;;;;;;1.10;0.50;;;;;;;14.02;91.46;96931.91;125170;1098;27198;-89
2021/08/06 04:45:14;;;;;;;2.47;1.20;;;;;;;14.03;91.95;96929.98;125225;1100;22823;-90
2021/08/06 04:47:44;;;;;;;0.50;0.50;;;;;;;14.01;91.97;96932.22;125200;1100;22795;-89
2021/08/06 04:50:13;;;;;;;1.55;0.60;;;;;;;13.99;92.03;96937.98;125258;1098;27344;-91
2021/08/06 04:52:41;;;;;;;0.60;0.60;;;;;;;13.99;91.75;96942.66;125275;1100;22889;-90
2021/08/06 04:55:08;;;;;;;0.60;0.60;;;;;;;13.99;91.93;96948.94;125209;1100;27351;-90
2021/08/06 04:57:37;;;;;;;0.78;0.78;;;;;;;13.99;92.20;96954.41;125283;1100;27262;-88
2021/08/06 05:00:06;;;;;;;;;;;;;;;13.98;91.88;96943.77;125238;1100;22810;-90
2021/08/06 05:02:34;;;;;;;1.25;0.60;;;;;;;13.94;92.11;96951.77;125328;1100;21479;-90
2021/08/06 05:05:02;;;;;;;1.20;0.80;;;;;;;13.94;92.25;96950.97;125208;1100;26326;-89
2021/08/06 05:07:30;;;;;;;0.98;0.95;;;;;;;13.92;92.37;96958.68;125217;1098;22887;-90
2021/08/06 05:10:11;;;;;;;1.80;1.15;;;;;;;13.91;92.50;96948.84;125240;1100;27326;-88
2021/08/06 05:12:38;;;;;;;1.30;1.20;;;;;;;13.94;92.74;96953.70;125601;1099;22903;-88
2021/08/06 05:15:06;;;;;;;1.85;1.20;;;;;;;13.97;92.71;96966.76;125622;1100;22854;-89
2021/08/06 05:17:34;;;;;;;3.00;1.45;;;;;;;13.99;92.32;96964.56;125609;1100;22906;-87
2021/08/06 05:20:03;;;;;;;2.65;1.40;;;;;;;14.03;92.61;96968.30;125670;1100;23446;-90
2021/08/06 05:22:30;;;;;;;2.40;1.27;;;;;;;14.06;92.36;96970.44;125575;1100;22890;-87
2021/08/06 05:24:57;;;;;;;1.80;1.70;;;;;;;14.05;92.49;96977.81;125553;1100;26841;-90
2021/08/06 05:27:24;;;;;;;2.40;1.90;;;;;;;14.08;92.85;96973.67;125456;1100;22813;-89
2021/08/06 05:29:51;;;;;;;3.70;2.30;;;;;;;14.09;92.42;96975.28;125411;1100;22899;-89
2021/08/06 05:32:18;;;;;;;2.05;1.95;;;;;;;14.10;92.58;96982.39;125401;1099;23041;-91
2021/08/06 05:34:46;;;;;;;1.90;1.80;;;;;;;14.13;92.63;96981.79;125419;1100;22811;-90
2021/08/06 05:37:13;;;;;;;2.35;1.80;;;;;;;14.15;92.67;96979.55;125485;1100;22809;-90
2021/08/06 05:39:40;;;;;;;3.65;1.70;;;;;;;14.17;92.63;96977.31;125509;1100;26410;-90
2021/08/06 05:42:09;;;;;;;6.03;2.13;;;;;;;14.20;92.72;96971.23;125411;1100;22832;-90
2021/08/06 05:44:36;;;;;;;2.10;1.90;;;;;;;14.22;92.63;96977.22;125459;1098;27866;-91
2021/08/06 05:47:03;;;;;;;3.50;2.25;;;;;;;14.24;92.62;96988.67;125463;1100;22828;-91
2021/08/06 05:49:32;;;;;;;;;;;;;;;14.27;92.51;96989.17;125758;1100;22793;-89
2021/08/06 05:51:58;;;;;;;2.55;2.20;;;;;;;14.28;92.49;96991.61;125813;1100;23469;-88
2021/08/06 05:54:25;;;;;;;2.35;1.90;;;;;;;14.30;92.51;96997.59;125912;1097;25886;-88
2021/08/06 05:56:54;;;;;;;2.10;1.90;;;;;;;14.34;92.28;97001.36;125491;1100;22793;-88
2021/08/06 05:59:21;;;;;;;3.10;2.70;;;;;;;14.37;92.28;96997.98;125710;1100;22802;-88
2021/08/06 06:01:48;;;;;;;2.65;2.45;;;;;;;14.44;92.24;96997.58;125764;1099;22771;-88
2021/08/06 06:04:34;;;;;;;3.80;2.00;;;;;;;14.52;92.68;96999.61;125581;1100;22803;-88
2021/08/06 06:07:07;;;;;;;3.20;2.40;;;;;;;14.55;92.29;96996.23;125438;1100;22810;-89
2021/08/06 06:09:34;;;;;;;2.40;2.20;;;;;;;14.60;92.15;96998.09;125454;1098;22846;-86
2021/08/06 06:12:01;;;;;;;2.20;2.00;;;;;;;14.64;92.18;97004.57;125467;1100;23710;-91
2021/08/06 06:14:29;;;;;;;1.77;1.67;;;;;;;14.67;91.67;97000.42;125609;1100;22805;-89
2021/08/06 06:16:56;;;;;;;2.00;1.90;;;;;;;14.67;91.79;97006.70;125579;1100;22796;-88
2021/08/06 06:19:23;;;;;;;2.60;2.20;;;;;;;14.71;91.90;97006.90;125492;1100;22826;-89
2021/08/06 06:21:51;;;;;;;2.20;2.00;;;;;;;14.74;91.76;97011.77;125505;1100;23312;-91
2021/08/06 06:24:19;;;;;;;3.13;2.80;;;;;;;14.78;92.03;97010.03;125516;1103;22825;-90
2021/08/06 06:26:46;;;;;;;2.35;2.15;;;;;;;14.83;91.79;97007.17;125448;1100;22833;-90
2021/08/06 06:29:13;;;;;;;2.60;1.90;;;;;;;14.87;91.42;97007.38;125575;1098;23011;-91
2021/08/06 06:31:40;;;;;;;2.75;2.55;;;;;;;14.88;91.20;97018.03;125579;1100;22867;-91
2021/08/06 06:34:08;;;;;;;2.90;2.37;;;;;;;14.88;91.22;97009.80;125444;1100;24617;-88
2021/08/06 06:36:37;;;;;;;3.98;2.23;;;;;;;14.87;91.01;97008.17;125482;1100;23318;-91
2021/08/06 06:39:04;;;;;;;2.40;2.20;;;;;;;14.83;91.01;97022.82;125423;1100;22812;-91
2021/08/06 06:41:32;;;;;;;1.83;1.20;;;;;;;14.80;90.72;97025.06;125485;1100;22825;-91
2021/08/06 06:44:09;;;;;;;2.33;1.80;;;;;;;14.74;90.73;97020.80;125493;1100;22829;-89
2021/08/06 06:46:37;;;;;;;2.37;1.70;;;;;;;14.72;90.63;97031.26;125505;1100;22819;-89
2021/08/06 06:49:04;;;;;;;2.47;1.37;;;;;;;14.68;90.57;97027.52;125488;1100;22952;-89
2021/08/06 06:51:31;;;;;;;1.63;1.30;;;;;;;14.65;90.10;97030.06;125452;1100;25957;-90
2021/08/06 06:53:58;;;;;;;1.70;1.30;;;;;;;14.58;89.99;97038.69;125398;1100;26261;-91
2021/08/06 06:56:26;;;;;;;1.40;1.30;;;;;;;14.54;90.15;97043.14;125605;1100;23488;-89
2021/08/06 06:58:53;;;;;;;2.60;1.47;;;;;;;14.48;89.86;97047.88;125473;1100;23036;-88
2021/08/06 07:01:22;;;;;;;2.20;1.18;;;;;;;14.44;90.03;97049.62;125625;1099;22880;-91
2021/08/06 07:03:49;;;;;;;1.90;1.40;;;;;;;14.40;90.15;97052.16;125500;1100;22799;-89
2021/08/06 07:06:19;;;;;;;2.15;1.50;;;;;;;14.35;89.81;97054.99;125491;1100;22893;-90
2021/08/06 07:08:47;;;;;;;2.57;2.23;;;;;;;14.29;90.13;97055.39;125547;1100;22822;-89
2021/08/06 07:11:14;;;;;;;1.65;1.55;;;;;;;14.23;89.96;97052.75;125682;1099;22796;-90
2021/08/06 07:13:42;;;;;;;2.93;1.43;;;;;;;14.18;90.19;97060.25;125456;1100;22928;-90
2021/08/06 07:16:09;;;;;;;4.40;1.80;;;;;;;14.17;90.30;97064.13;125596;1100;23397;-91
2021/08/06 07:18:37;;;;;;;2.45;1.40;;;;;;;14.15;89.67;97069.90;125469;1100;23024;-89
2021/08/06 07:21:05;;;;;;;1.80;1.70;;;;;;;14.14;90.27;97064.72;125532;1100;22812;-90
2021/08/06 07:23:32;;;;;;;1.97;1.80;;;;;;;14.13;90.21;97077.61;125567;1100;23106;-90
2021/08/06 07:26:00;;;;;;;2.30;1.80;;;;;;;14.15;89.54;97078.11;125662;1100;24585;-90
2021/08/06 07:28:28;;;;;;;2.10;1.90;;;;;;;14.17;90.14;97088.77;125639;1100;27525;-90
2021/08/06 07:30:56;;;;;;;3.00;2.20;;;;;;;14.17;90.06;97084.09;125550;1100;22890;-91
2021/08/06 07:33:25;;;;;;;2.10;1.90;;;;;;;14.17;89.52;97086.83;125558;1100;23055;-91
2021/08/06 07:35:53;;;;;;;2.30;1.50;;;;;;;14.16;89.24;97087.13;125525;1100;22819;-90
2021/08/06 07:38:20;;;;;;;3.65;2.10;;;;;;;14.16;89.48;97098.88;125683;1100;22804;-91
2021/08/06 07:40:47;;;;;;;2.70;1.90;;;;;;;14.16;88.92;97109.83;125515;1100;27274;-91
2021/08/06 07:43:14;;;;;;;2.63;2.07;;;;;;;14.19;89.43;97108.44;125596;1100;23354;-89
2021/08/06 07:45:46;;;;;;;3.30;2.35;;;;;;;14.22;89.57;97107.84;125560;1100;22904;-91
2021/08/06 07:48:14;;;;;;;4.30;2.10;;;;;;;14.28;89.54;97108.55;125333;1100;22940;-91
2021/08/06 07:50:42;;;;;;;2.60;2.10;;;;;;;14.33;89.53;97111.20;125353;1100;22832;-91
2021/08/06 07:53:10;;;;;;;4.23;1.77;;;;;;;14.37;89.51;97112.20;125391;1100;27367;-91
2021/08/06 07:55:37;;;;;;;2.00;1.80;;;;;;;14.38;89.22;97113.84;125335;1100;24443;-92
2021/08/06 07:58:04;;;;;;;2.40;2.20;;;;;;;14.42;89.77;97117.59;125306;1100;26003;-92
2021/08/06 08:00:32;;;;;;;5.35;2.00;;;;;;;14.49;89.62;97108.98;125323;1100;27719;-89
2021/08/06 08:02:59;;;;;;;2.30;1.40;;;;;;;14.55;89.49;97121.45;125303;1100;22831;-91
2021/08/06 08:05:30;;;;;;;3.80;2.00;;;;;;;14.57;89.32;97120.05;125311;1100;22895;-90
2021/08/06 08:08:03;;;;;;;2.00;1.80;;;;;;;14.61;89.36;97123.82;125313;1100;26043;-89
2021/08/06 08:10:31;;;;;;;2.18;1.90;;;;;;;14.64;89.18;97122.39;125260;1100;22845;-92
2021/08/06 08:12:58;;;;;;;1.97;1.80;;;;;;;14.70;89.28;97131.34;125249;1100;27345;-92
2021/08/06 08:15:25;;;;;;;3.10;2.00;;;;;;;14.75;89.39;97134.78;125279;1100;22932;-92
2021/08/06 08:17:52;;;;;;;1.80;1.70;;;;;;;14.80;88.71;97131.95;125383;1103;27361;-92
2021/08/06 08:20:20;;;;;;;2.73;2.20;;;;;;;14.85;88.71;97135.69;125261;1100;22791;-93
2021/08/06 08:22:47;;;;;;;2.70;2.20;;;;;;;14.90;88.90;97138.33;125810;1099;26433;-92
2021/08/06 08:25:14;;;;;;;3.37;1.93;;;;;;;15.01;89.43;97145.21;125238;1100;22888;-92
2021/08/06 08:27:42;;;;;;;2.40;1.90;;;;;;;15.15;88.73;97140.52;125241;1100;22854;-91
2021/08/06 08:30:10;;;;;;;3.00;2.10;;;;;;;15.32;89.13;97139.89;125288;1100;22893;-92
2021/08/06 08:32:38;;;;;;;2.33;2.13;;;;;;;15.47;88.63;97141.46;125296;1100;22960;-92
2021/08/06 08:35:07;;;;;;;4.87;2.50;;;;;;;15.61;88.54;97146.91;125569;1100;26230;-90
2021/08/06 08:37:35;;;;;;;2.30;2.10;;;;;;;15.71;87.86;97140.39;125289;1100;22835;-93
2021/08/06 08:40:05;;;;;;;2.10;1.80;;;;;;;15.77;87.43;97141.10;125352;1100;22897;-92
2021/08/06 08:42:35;;;;;;;3.80;1.97;;;;;;;15.79;86.54;97144.34;125376;1099;22810;-92
2021/08/06 08:45:04;;;;;;;3.37;1.87;;;;;;;15.76;85.83;97143.05;125557;1100;22896;-89
2021/08/06 08:47:35;;;;;;;1.90;1.70;;;;;;;15.73;85.60;97154.61;125651;1100;22839;-89
2021/08/06 08:50:05;;;;;;;2.00;1.30;;;;;;;15.66;84.00;97168.75;125362;1098;26292;-90
2021/08/06 08:52:32;;;;;;;1.47;1.27;;;;;;;15.54;84.32;97163.80;125464;1100;22890;-91
2021/08/06 08:55:03;;;;;;;1.73;1.43;;;;;;;15.44;84.80;97172.28;125780;1098;22883;-92
2021/08/06 08:57:30;;;;;;;1.73;1.57;;;;;;;15.36;84.79;97171.06;125779;1100;25819;-91
2021/08/06 09:00:00;;;;;;;6.13;1.60;;;;;;;15.32;85.14;97172.00;125660;1100;22959;-93
2021/08/06 09:02:35;;;;;;;2.30;1.53;;;;;;;15.30;84.82;97169.56;125549;1100;26359;-93
2021/08/06 09:05:21;;;;;;;2.75;1.85;;;;;;;15.33;85.10;97170.86;125739;1100;22837;-92
2021/08/06 09:08:18;;;;;;;3.40;1.87;;;;;;;15.40;85.29;97165.77;125647;1100;27713;-91
2021/08/06 09:11:28;;;;;;;1.87;1.60;;;;;;;15.51;85.67;97171.84;125520;1100;24419;-90
2021/08/06 09:14:18;;;;;;;1.68;1.58;;;;;;;15.55;84.86;97187.38;125662;1099;22937;-91
2021/08/06 09:17:09;;;;;;;2.63;1.70;;;;;;;15.56;85.21;97185.45;125755;1100;24221;-90
2021/08/06 09:20:02;;;;;;;3.67;1.50;;;;;;;15.58;85.77;97180.45;126071;1100;22956;-92
2021/08/06 09:22:49;;;;;;;3.40;2.23;;;;;;;15.57;86.18;97173.36;125457;1100;22970;-91
2021/08/06 09:25:17;;;;;;;2.90;2.13;;;;;;;15.55;86.29;97187.38;125443;1100;22807;-89
2021/08/06 09:28:02;;;;;;;;;;;;;;;15.54;85.79;97177.52;125477;1100;22841;-92
2021/08/06 09:30:34;;;;;;;2.20;2.10;;;;;;;15.56;86.04;97178.05;125412;1100;21478;-93
2021/08/06 09:33:04;;;;;;;3.17;2.87;;;;;;;15.57;86.30;97178.84;125539;1100;22902;-90
2021/08/06 09:35:33;;;;;;;4.80;2.97;;;;;;;15.59;86.09;97181.29;125570;1100;22839;-94
2021/08/06 09:38:01;;;;;;;2.85;2.40;;;;;;;15.62;86.50;97186.16;125496;1100;26328;-93
2021/08/06 09:40:31;;;;;;;3.60;2.70;;;;;;;15.64;86.05;97189.41;125515;1099;26274;-90
2021/08/06 09:43:14;;;;;;;2.67;2.47;;;;;;;15.65;86.11;97191.84;125629;1100;24199;-92
2021/08/06 09:45:41;;;;;;;3.40;2.18;;;;;;;15.65;86.11;97197.33;125939;1100;22858;-89
2021/08/06 09:48:09;;;;;;;2.63;2.43;;;;;;;15.68;85.50;97199.44;125692;1100;26268;-90
2021/08/06 09:50:46;;;;;;;2.38;2.20;;;;;;;15.77;85.63;97204.23;125611;1100;22844;-90
2021/08/06 09:53:14;;;;;;;4.50;2.30;;;;;;;15.81;84.56;97199.73;125689;1100;22795;-93
2021/08/06 09:55:49;;;;;;;1.60;1.50;;;;;;;15.98;85.00;97188.90;125781;1100;22778;-91
2021/08/06 09:58:20;;;;;;;1.93;1.83;;;;;;;16.12;82.99;97199.83;125620;1100;22829;-92
2021/08/06 10:00:52;;;;;;;1.73;1.63;;;;;;;16.29;83.05;97196.41;125591;1100;22943;-91
2021/08/06 10:03:29;;;;;;;3.20;1.60;;;;;;;16.49;82.54;97200.55;125726;1100;22954;-90
2021/08/06 10:06:19;;;;;;;3.18;2.10;;;;;;;16.57;80.84;97209.97;125660;1100;22850;-90
2021/08/06 10:08:46;;;;;;;3.17;2.00;;;;;;;16.67;81.58;97193.20;125745;1100;24438;-90
2021/08/06 10:11:15;;;;;;;2.10;2.00;;;;;;;16.68;80.25;97201.14;125620;1100;22883;-90
2021/08/06 10:13:44;;;;;;;3.13;2.48;;;;;;;16.65;80.16;97201.77;125719;1100;24577;-91
2021/08/06 10:16:12;;;;;;;6.48;2.38;;;;;;;16.55;79.50;97195.73;125559;1100;26005;-92
2021/08/06 10:18:40;;;;;;;2.65;2.30;;;;;;;16.49;80.38;97206.85;125740;1100;22793;-92
2021/08/06 10:21:10;;;;;;;2.68;2.48;;;;;;;16.54;80.96;97216.08;125652;1100;22778;-91
2021/08/06 10:23:37;;;;;;;;;;;;;;;16.50;80.01;97213.98;125598;1100;22816;-91
2021/08/06 10:26:09;;;;;;;3.98;2.10;;;;;;;16.41;80.56;97224.09;125687;1100;22746;-92
2021/08/06 10:28:44;;;;;;;3.70;2.10;;;;;;;16.33;80.38;97220.17;125697;1100;22896;-91
2021/08/06 10:31:25;;;;;;;2.70;2.47;;;;;;;16.27;80.77;97223.34;125590;1098;22792;-91
2021/08/06 10:34:12;;;;;;;2.50;1.90;;;;;;;16.20;80.51;97221.06;125492;1100;22926;-88
2021/08/06 10:36:44;;;;;;;3.23;1.80;;;;;;;16.17;80.09;97223.63;125582;1100;25870;-91
2021/08/06 10:39:30;;;;;;;2.23;2.03;;;;;;;16.13;79.72;97224.24;125787;1100;26264;-89
2021/08/06 10:41:59;;;;;;;1.93;1.60;;;;;;;16.12;80.17;97236.34;125484;1100;22887;-90
2021/08/06 10:44:26;;;;;;;3.23;2.30;;;;;;;16.07;80.14;97243.89;125442;1100;22808;-91
2021/08/06 10:47:04;;;;;;;2.43;2.23;;;;;;;16.01;80.80;97253.39;125470;1100;24474;-92
2021/08/06 10:49:37;;;;;;;2.68;1.70;;;;;;;15.92;80.71;97258.80;126265;1100;27361;-90
2021/08/06 10:52:24;;;;;;;3.43;1.40;;;;;;;15.74;78.74;97244.91;125845;1100;22843;-92
2021/08/06 10:54:51;;;;;;;2.63;1.60;;;;;;;15.59;79.66;97247.95;125791;1103;22838;-91
2021/08/06 10:57:29;;;;;;;2.10;1.30;;;;;;;15.46;79.41;97257.03;126070;1100;22859;-92
2021/08/06 10:59:57;;;;;;;1.78;1.68;;;;;;;15.41;80.07;97249.70;125826;1100;22936;-90
2021/08/06 11:02:34;;;;;;;1.30;1.20;;;;;;;15.44;80.12;97257.33;125789;1100;22886;-93
2021/08/06 11:05:36;;;;;;;1.43;0.93;;;;;;;15.53;79.45;97247.25;125698;1100;22897;-91
2021/08/06 11:08:41;;;;;;;1.10;1.10;;;;;;;15.63;78.71;97248.95;125828;1100;22829;-92
2021/08/06 11:11:08;;;;;;;1.97;1.30;;;;;;;15.82;79.39;97235.12;125443;1100;22799;-90
2021/08/06 11:13:53;;;;;;;1.30;1.20;;;;;;;16.03;79.24;97245.64;125385;1100;22931;-91
2021/08/06 11:16:21;;;;;;;1.38;1.28;;;;;;;16.31;78.01;97252.64;125368;1100;22828;-91
2021/08/06 11:18:49;;;;;;;4.70;1.60;;;;;;;16.48;78.28;97246.47;125348;1100;27113;-89
2021/08/06 11:21:18;;;;;;;2.25;1.35;;;;;;;16.67;78.06;97239.94;125368;1100;22874;-91
2021/08/06 11:23:57;;;;;;;5.00;1.67;;;;;;;16.87;77.73;97241.36;125405;1100;27341;-92
2021/08/06 11:26:25;;;;;;;;;;;;;;;17.08;75.81;97247.13;125396;1100;22900;-91
2021/08/06 11:28:55;;;;;;;2.50;1.20;;;;;;;17.26;73.75;97259.00;125426;1098;21509;-89
2021/08/06 11:31:23;;;;;;;4.17;1.67;;;;;;;17.33;74.77;97236.52;125511;1100;22833;-90
2021/08/06 11:34:01;;;;;;;1.45;1.20;;;;;;;17.53;73.34;97240.62;125707;1099;22792;-92
2021/08/06 11:36:28;;;;;;;1.97;1.60;;;;;;;17.66;72.69;97245.19;125774;1098;24949;-94
2021/08/06 11:39:02;;;;;;;1.80;1.43;;;;;;;17.76;72.42;97239.38;125826;1100;22806;-91
2021/08/06 11:41:30;;;;;;;1.85;1.38;;;;;;;18.03;73.08;97243.80;126123;1100;23225;-90
2021/08/06 11:43:58;;;;;;;2.83;1.77;;;;;;;18.40;72.89;97244.27;125665;1100;22916;-90
2021/08/06 11:46:25;;;;;;;2.45;1.30;;;;;;;18.61;68.53;97235.33;125821;1100;22789;-93